Airfield :







YOU CAN JOIN US ON...

 
LOGIN :

Register | Disclaimer

   EN    FR    IT 

 









Legend :    VFR   Marginal VFR   IFR   Intensive IFR   Very Intensive IFR
Visi :
Ceiling :
>= 8 km
>= 3000ft
5 to 8 km
1000 to 3000 ft
1500m to 5 km
500 to 1000 ft
800 to 1500m
200 to 500 ft
< 800m
< 200 ft
Symbols :   Thunderstorms  Fog  Heavy snow  Heavy precipitations  Wind > 20 kt






- Airport Elevation : 70 ft


KIWI - Wiscasset

CURRENT METAR :
  • 021753Z AUTO VRB04KT 5SM -RA BR OVC013 06/04 A2948 RMK AO2 SLP984 P0007 60025 T00560039 10056 20033 56014

EXPIRED METARs :
  • 021653Z AUTO 36008KT 310V050 4SM -RA BR BKN013 OVC018 06/04 A2949 RMK AO2 SLP987 P0005 T00560039
  • 021553Z AUTO 36007KT 300V090 6SM -RA BR OVC012 05/03 A2951 RMK AO2 SLP994 P0005 T00500033

TAF N/A



MET'MAP, your aeronautical weather chart ! - Copyright ORBIFLY December 2007 - Disclaimer

ORBIFLY MET'MAP TEAM :

Programming & Development : Alexandra Zaïnal
Concept & original design : Baudouin d'Aumeries
Assistance for programming : Marc-Olivier Méhu
Technical & hardware support : Manuel Goepfert

Contact : metmap@orbifly.com




SOURCES & CREDITS :

   NOAA